Skip Navigation Links
NOAA logo - Click to go to the NOAA homepage
NOAA's National Weather Service
Alaska Aviation Weather Unit
  NWS logo - Click to go to the NWS homepage
Left Navbar Graphic     00 AKDT = 08 GMT

   
NOAA is celebrating 200 years of science, service, and stewardship. Visit the NOAA 200th celebration Web site to learn more.
USA.gov is the U.S. Government's official Web portal to all Federal, state and local government Web resources and services.
Facebook
NWS on Facebook

Important Change Regarding the AAWU Web Presence

 

Over the last several months, the AAWU has been working to navigate its webpages to a nationally supported server. Security, as well as other needs, have necessitated the change.  We have been given an extension for the site changeover while we diligently work at addressing feedback received. As of July 14, 2017, aawu.arh.noaa.gov will be discontinued. The new AAWU web address is weather.gov/aawu. It is now live and will run in-parallel with the old site until it is discontinued on July 14, 2017. Please continue to send any feedback or questions regarding the new webpages to nws.ar.aawu.webauthors@noaa.gov.  Thank you for your patience during this time of transition.
AAWU Home :: Display TAF Add Bookmark
TAF PAHO 240541Z 2406/2506  06006KT P6SM -SHRA BKN035 OVC050
     FM241200 06004KT P6SM VCSH SCT020 OVC030
     FM241600 24010KT P6SM SCT020 BKN050=

4444
FTAK31 PANC 240541
TAFANC
TAF

METAR PAHO 240253Z 06005KT 9SM FEW026 BKN040 OVC055 12/11 A2938 RMK AO2 SLP950 P0003 60005 I1388 I31163 T01220106 56010 $= METAR PAHO 240353Z 00000KT 10SM SCT047 BKN060 OVC075 12/11 A2937 RMK AO2 SLP947 P0001 T01220106 $= METAR PAHO 240453Z 00000KT 10SM OVC080 11/11 A2937 RMK AO2 SLP946 I1388 T01110106 $= METAR PAHO 240553Z AUTO 07003KT 10SM BKN065 OVC090 11/10 A2937 RMK AO2 SLP945 P0001 60007 I61551 T01110100 10122 20111 56005 TSNO $= PAHO 240634Z AUTO 01003KT 1 3/4SM BKN065 OVC080 A2937= PAHO 240644Z AUTO 00000KT 3SM BKN065 OVC080 A2937= METAR PAHO 240653Z AUTO 03003KT 10SM SCT070 BKN085 OVC110 A2937 RMK AO2 SLPNO P0001 I1388 TSNO $= METAR PAHO 240753Z AUTO 05003KT 10SM SCT050 BKN070 OVC085 A2937 RMK AO2 SLPNO P0001 TSNO $=
 Alaska TAF Map

NOAA's National Weather Service
Alaska Aviation Weather Unit
6930 Sand Lake Road
Anchorage, AK 99502-1845
Disclaimer
Credits
Glossary
Privacy Policy
About Us
Career Opportunities
Contact AAWU Internet Services Site last modified: April, 17th 2012